Latest Coastal Weather Observations for Cape Nelson

IDS60701

Issued at 8:31 pm CST Tuesday 23 July 2024 (issued every 10 minutes, with the page automatically refreshed every 10 minutes)

About coastal observations | Map of coastal stations | Coastal observations for SA | Marine services | Other Formats
Station Details ID: 090184 Name: CAPE NELSON LIGHTHOUSE Lat: -38.43 Lon: 141.54 Height: 45.4 m
Data from the previous 72 hours. | See also: Recent months at Cape Nelson
Date/Time
CST
Wind Sea
Height
m
Swell Vis
km
Cloud Weather Temp
°C
Press
MSL
hPa
Rain since
9am
mm
Dir  Spd
kts
Gust
kts
Height
m
Period
s
Dir
23/08:00pm N 15 22 - - - - - - - 13.6 1015.8 0.2
23/07:30pm N 14 21 - - - - - - - 13.6 1016.0 0.2
23/07:00pm N 14 25 - - - - - - - 14.1 1016.0 0.2
23/06:30pm N 14 21 - - - - - - - 14.2 1016.2 0.2
23/06:00pm N 11 18 - - - - - - - 14.2 1016.1 0.2
23/05:30pm N 10 13 - - - - - - - 14.4 1016.0 0.2
23/05:00pm N 11 15 - - - - - - - 15.0 1016.0 0.2
23/04:30pm NNW 11 17 - - - - - - - 15.6 1016.0 0.2
23/04:00pm NNW 12 21 - - - - - - - 16.6 1016.0 0.2
23/03:30pm NNW 15 22 - - - - - - - 17.2 1016.0 0.2
23/03:10pm NNW 15 26 - - - - - - - 17.4 1016.1 0.2
23/03:00pm NNW 15 23 - - - - - - - 17.2 1016.2 0.2
23/02:30pm NNW 15 25 - - - - - - - 17.7 1016.3 0.0
23/02:19pm NNW 16 26 - - - - - - - 17.7 1016.3 0.0
23/02:00pm NNW 17 26 - - - - - - - 17.1 1016.3 0.0
23/01:30pm NNW 16 24 - - - - - - - 17.5 1016.7 0.0
23/01:00pm NNW 18 26 - - - - - - - 17.5 1017.1 0.0
23/12:30pm NNW 17 27 - - - - - - - 17.1 1017.7 0.0
23/12:00pm NNW 19 30 - - - - - - - 16.8 1018.1 0.0
23/11:39am NNW 17 28 - - - - - - - 16.5 1018.5 0.0
23/11:30am NNW 17 26 - - - - - - - 16.3 1018.6 0.0
23/11:00am NNW 18 29 - - - - - - - 15.8 1018.9 0.0
23/10:33am NNW 18 31 - - - - - - - 15.2 1019.1 0.0
23/10:30am NNW 18 27 - - - - - - - 15.1 1019.2 0.0
23/10:16am NNW 18 28 - - - - - - - 14.9 1019.2 0.0
23/10:00am NNW 17 26 - - - - - - - 14.5 1019.2 0.0
23/09:30am NNW 16 26 - - - - - - - 14.0 1019.2 0.0
23/09:09am NNW 15 25 - - - - - - - 13.0 1019.3 0.0
23/09:00am NNW 15 21 - - - - - - - 12.7 1019.3 0.0
23/08:33am NNW 15 25 - - - - - - - 12.4 1019.1 0.0
23/08:30am NNW 14 22 - - - - - - - 12.4 1019.1 0.2
23/08:00am N 16 23 - - - - - - - 11.9 1018.9 0.2
23/07:40am N 16 26 - - - - - - - 11.9 1018.9 0.2
23/07:30am N 14 23 - - - - - - - 11.6 1018.9 0.2
23/07:00am N 15 25 - - - - - - - 11.6 1018.8 0.2
23/06:54am N 15 25 - - - - - - - 11.6 1018.7 0.2
23/06:30am N 15 23 - - - - - - - 11.6 1018.6 0.2
23/06:00am N 14 19 - - - - - - - 11.7 1018.6 0.2
23/05:30am NNW 15 24 - - - - - - - 12.1 1018.5 0.2
23/05:00am NNW 14 21 - - - - - - - 11.7 1018.7 0.2
23/04:30am NNW 13 19 - - - - - - - 11.9 1018.8 0.2
23/04:00am NNW 14 22 - - - - - - - 12.1 1018.9 0.2
23/03:30am NNW 13 19 - - - - - - - 12.2 1019.2 0.2
23/03:00am NNW 13 19 - - - - - - - 12.5 1019.3 0.2
23/02:30am NNW 14 20 - - - - - - - 12.6 1019.3 0.2
23/02:00am NNW 13 18 - - - - - - - 12.7 1019.4 0.2
23/01:30am NNW 15 22 - - - - - - - 12.6 1019.6 0.2
23/01:00am NNW 14 22 - - - - - - - 12.3 1019.4 0.2
23/12:30am NNW 13 18 - - - - - - - 12.5 1019.6 0.2
23/12:00am NNW 14 21 - - - - - - - 12.7 1019.8 0.2
 
Date/Time
CST
Wind Sea
Height
m
Swell Vis
km
Cloud Weather Temp
°C
Press
MSL
hPa
Rain since
9am
mm
Dir  Spd
kts
Gust
kts
Height
m
Period
s
Dir
22/11:30pm NNW 14 22 - - - - - - - 12.9 1020.1 0.2
22/11:00pm NNW 13 21 - - - - - - - 13.0 1020.2 0.2
22/10:30pm NNW 13 19 - - - - - - - 13.2 1020.4 0.2
22/10:00pm NNW 11 17 - - - - - - - 13.3 1020.5 0.2
22/09:30pm NNW 12 16 - - - - - - - 13.4 1020.6 0.2
22/09:00pm NNW 12 17 - - - - - - - 13.5 1020.6 0.2
22/08:30pm NNW 12 20 - - - - - - - 13.4 1020.5 0.2
22/08:14pm NNW 15 25 - - - - - - - 13.5 1020.3 0.2
22/08:00pm NNW 12 18 - - - - - - - 13.3 1020.3 0.2
22/07:30pm NNW 14 21 - - - - - - - 13.5 1020.3 0.2
22/07:00pm NNW 13 18 - - - - - - - 13.4 1020.0 0.2
22/06:30pm NNW 14 20 - - - - - - - 14.0 1019.8 0.2
22/06:00pm NNW 15 21 - - - - - - - 14.0 1019.6 0.2
22/05:30pm NNW 13 19 - - - - - - - 14.0 1019.3 0.2
22/05:00pm NNW 14 20 - - - - - - - 14.1 1019.2 0.2
22/04:30pm NW 15 22 - - - - - - - 14.1 1019.0 0.2
22/04:00pm NNW 15 22 - - - - - - - 14.5 1018.8 0.2
22/03:30pm NNW 13 18 - - - - - - - 14.6 1018.6 0.2
22/03:00pm NNW 12 18 - - - - - - - 14.8 1018.5 0.0
22/02:30pm NNW 13 22 - - - - - - - 15.2 1018.6 0.0
22/02:00pm NW 16 22 - - - - - - - 15.9 1018.3 0.0
22/01:30pm NW 18 25 - - - - - - - 16.0 1018.4 0.0
22/01:00pm NW 17 24 - - - - - - - 15.6 1018.7 0.0
22/12:30pm NW 18 26 - - - - - - - 15.0 1019.0 0.0
22/12:01pm NNW 15 25 - - - - - - - 15.2 1019.2 0.0
22/12:00pm NNW 15 22 - - - - - - - 15.4 1019.2 0.0
22/11:30am NW 17 23 - - - - - - - 15.3 1019.4 0.0
22/11:00am NW 18 24 - - - - - - - 15.2 1019.5 0.0
22/10:30am NW 16 22 - - - - - - - 15.0 1019.8 0.0
22/10:00am NW 16 23 - - - - - - - 14.7 1019.6 0.0
22/09:30am NW 17 24 - - - - - - - 13.9 1019.5 0.0
22/09:23am NW 17 27 - - - - - - - 13.9 1019.4 0.0
22/09:00am NW 16 24 - - - - - - - 13.7 1019.2 0.0
22/08:30am NW 15 20 - - - - - - - 13.2 1018.9 3.6
22/08:00am NW 15 21 - - - - - - - 12.9 1018.4 3.6
22/07:30am NW 15 21 - - - - - - - 12.8 1018.2 3.6
22/07:00am NW 17 23 - - - - - - - 12.8 1017.8 3.6
22/06:30am NW 17 26 - - - - - - - 12.8 1017.4 3.6
22/06:00am NW 18 25 - - - - - - - 12.7 1017.3 3.6
22/05:30am NW 17 24 - - - - - - - 12.7 1016.8 3.6
22/05:00am NW 17 27 - - - - - - - 12.8 1016.6 3.6
22/04:35am NNW 17 27 - - - - - - - 12.5 1016.4 3.6
22/04:30am NNW 18 27 - - - - - - - 12.5 1016.4 3.6
22/04:25am NNW 17 27 - - - - - - - 12.5 1016.3 3.6
22/04:00am NNW 17 24 - - - - - - - 12.3 1016.4 3.6
22/03:32am NNW 16 26 - - - - - - - 12.2 1016.2 3.4
22/03:30am NNW 17 25 - - - - - - - 12.2 1016.3 3.4
22/03:00am NNW 19 28 - - - - - - - 12.3 1016.2 2.8
22/02:50am NNW 18 29 - - - - - - - 12.4 1016.0 2.4
22/02:30am NNW 18 27 - - - - - - Recent precip. 12.4 1016.3 2.4
22/02:26am NNW 17 27 - - - - - - - 12.4 1016.4 2.4
22/02:00am NNW 16 24 - - - - - - - 12.6 1016.4 2.4
22/01:30am NNW 17 24 - - - - - - - 12.9 1016.4 1.0
22/01:00am NNW 19 27 - - - - - - - 13.2 1016.3 1.0
22/12:33am NNW 17 28 - - - - - - - 13.2 1016.4 1.0
22/12:30am NNW 17 26 - - - - - - - 13.1 1016.4 1.0
22/12:00am NNW 18 25 - - - - - - - 13.1 1016.5 1.0
 
Date/Time
CST
Wind Sea
Height
m
Swell Vis
km
Cloud Weather Temp
°C
Press
MSL
hPa
Rain since
9am
mm
Dir  Spd
kts
Gust
kts
Height
m
Period
s
Dir
21/11:35pm NNW 17 27 - - - - - - - 13.1 1016.4 1.0
21/11:30pm NNW 18 25 - - - - - - - 13.1 1016.4 1.0
21/11:06pm NNW 19 29 - - - - - - - 13.1 1016.4 1.0
21/11:00pm NNW 18 26 - - - - - - - 13.0 1016.4 1.0
21/10:30pm NNW 17 24 - - - - - - - 12.9 1016.4 1.0
21/10:05pm NNW 15 25 - - - - - - - 12.8 1016.4 1.0
21/10:00pm NNW 14 23 - - - - - - - 12.8 1016.4 1.0
21/09:30pm NNW 17 25 - - - - - - - 12.8 1016.3 1.0
21/09:00pm NNW 18 27 - - - - - - - 12.9 1016.1 1.0
21/08:41pm NNW 18 28 - - - - - - - 12.9 1016.0 1.0
21/08:30pm NNW 20 27 - - - - - - Recent precip. 12.9 1015.9 1.0
21/08:17pm NW 21 31 - - - - - - - 13.0 1015.9 1.0
21/08:00pm NW 23 31 - - - - - - - 13.2 1015.8 1.0
21/07:47pm NW 20 30 - - - - - - - 13.2 1015.6 0.8
21/07:30pm NW 19 26 - - - - - - - 13.1 1015.5 0.8
21/07:00pm NNW 17 28 - - - - - - - 13.0 1015.3 0.6
21/06:54pm NNW 15 25 - - - - - - - 12.9 1015.3 0.6
21/06:30pm NNW 13 20 - - - - - - - 13.0 1015.2 0.6
21/06:00pm NNW 16 22 - - - - - - - 13.3 1015.2 0.2
21/05:38pm NNW 18 29 - - - - - - - 13.4 1015.1 0.2
21/05:30pm NNW 15 22 - - - - - - Recent precip. 13.3 1015.1 0.2
21/05:00pm NW 19 25 - - - - - - - 13.6 1014.9 0.0
21/04:49pm NW 18 28 - - - - - - - 13.5 1015.0 0.0
21/04:30pm NW 18 27 - - - - - - - 13.7 1014.9 0.0
21/04:21pm NW 17 27 - - - - - - - 14.2 1015.0 0.0
21/04:00pm NW 16 24 - - - - - - - 14.3 1014.9 0.0
21/03:30pm NW 17 23 - - - - - - - 15.0 1014.7 0.0
21/03:11pm NW 17 27 - - - - - - - 15.0 1014.6 0.0
21/03:00pm NW 18 25 - - - - - - - 15.3 1014.6 0.0
21/02:30pm NW 19 26 - - - - - - - 15.3 1014.4 0.0
21/02:00pm NW 17 26 - - - - - - - 15.7 1014.3 0.0
21/01:30pm NW 18 25 - - - - - - - 15.6 1014.4 0.0
21/01:00pm NW 18 25 - - - - - - - 15.5 1014.6 0.0
21/12:30pm NW 18 28 - - - - - - - 14.9 1014.9 0.0
21/12:14pm NW 18 28 - - - - - - - 14.5 1015.1 0.0
21/12:00pm NW 17 24 - - - - - - - 14.6 1015.3 0.0
21/11:33am NW 17 27 - - - - - - - 13.7 1015.6 0.0
21/11:30am NW 17 23 - - - - - - - 13.6 1015.6 0.0
21/11:00am NW 19 27 - - - - - - - 13.7 1015.7 0.0
21/10:30am NNW 15 22 - - - - - - - 13.5 1015.9 0.0
21/10:00am NW 16 24 - - - - - - - 13.0 1015.9 0.0
21/09:30am NNW 12 17 - - - - - - - 12.9 1015.6 0.0
21/09:00am NNW 14 20 - - - - - - - 12.4 1015.6 0.0
21/08:30am NNW 17 23 - - - - - - Recent precip. 11.9 1015.5 4.4
21/08:00am NNW 16 21 - - - - - - - 11.6 1015.4 4.4
21/07:30am NW 16 22 - - - - - - - 11.0 1015.2 4.2
21/07:00am NNW 17 24 - - - - - - - 11.1 1015.0 4.2
21/06:30am NNW 16 23 - - - - - - - 10.7 1014.6 4.2
21/06:00am NNW 15 22 - - - - - - - 11.0 1014.5 4.2
21/05:30am NW 17 22 - - - - - - - 11.2 1014.1 4.2
21/05:00am NNW 15 20 - - - - - - - 11.0 1014.1 4.2
21/04:30am NW 16 24 - - - - - - - 11.1 1014.1 4.2
21/04:00am NW 16 23 - - - - - - - 10.9 1014.0 4.2
21/03:30am NW 17 21 - - - - - - - 11.0 1014.1 4.0
21/03:00am NW 14 20 - - - - - - - 10.7 1014.3 3.8
21/02:30am NNW 15 21 - - - - - - Recent precip. 10.4 1014.3 3.8
21/02:00am NNW 13 17 - - - - - - - 10.6 1014.4 3.6
21/01:30am NNW 13 17 - - - - - - - 10.7 1014.5 3.6
21/01:00am NNW 13 17 - - - - - - - 10.9 1014.4 3.6
21/12:30am WNW 13 19 - - - - - - - 11.9 1014.4 3.6
21/12:00am WNW 14 19 - - - - - - - 12.0 1014.4 3.6
 
Date/Time
CST
Wind Sea
Height
m
Swell Vis
km
Cloud Weather Temp
°C
Press
MSL
hPa
Rain since
9am
mm
Dir  Spd
kts
Gust
kts
Height
m
Period
s
Dir
20/11:30pm WNW 14 20 - - - - - - - 11.2 1014.5 3.6
20/11:00pm WNW 17 27 - - - - - - - 12.2 1014.4 3.6
20/10:59pm WNW 16 26 - - - - - - - 12.2 1014.4 3.6
20/10:30pm WNW 14 22 - - - - - - - 12.2 1014.3 3.6
20/10:00pm WNW 16 21 - - - - - - - 11.6 1014.2 3.6
20/09:30pm WNW 12 19 - - - - - - - 11.1 1014.0 3.6
20/09:18pm WNW 15 28 - - - - - - - 11.9 1014.0 3.6
20/09:00pm WNW 11 19 - - - - - - - 12.3 1013.8 3.6

Other formats

Comma delimited format used in spreadsheet applications
http://www.bom.gov.au/fwo/IDS60701/IDS60701.94826.axf

JavaScript Object Notation format (JSON) in row-major order
http://www.bom.gov.au/fwo/IDS60701/IDS60701.94826.json

Data quality

Most of these data are generated automatically and are frequently updated. Quality checks on data are not normally performed. It is possible for incorrect values to appear. Refer to information at About Latest Weather Observations and please check the disclaimer before using these data.